sensor_id;sensor_type;location;lat;lon;timestamp;P1;durP1;ratioP1;P2;durP2;ratioP2
8331;SDS011;4203;48.144;14.118;2024-01-30T00:00:28;28.23;;;17.47;;
8331;SDS011;4203;48.144;14.118;2024-01-30T00:02:55;28.03;;;19.00;;
8331;SDS011;4203;48.144;14.118;2024-01-30T00:05:22;27.37;;;17.27;;
8331;SDS011;4203;48.144;14.118;2024-01-30T00:07:51;35.17;;;19.13;;
8331;SDS011;4203;48.144;14.118;2024-01-30T00:10:18;29.93;;;18.43;;
8331;SDS011;4203;48.144;14.118;2024-01-30T00:12:45;30.53;;;18.50;;
8331;SDS011;4203;48.144;14.118;2024-01-30T00:15:14;28.40;;;18.10;;
8331;SDS011;4203;48.144;14.118;2024-01-30T00:17:41;28.37;;;18.37;;
8331;SDS011;4203;48.144;14.118;2024-01-30T00:20:09;31.53;;;17.33;;
8331;SDS011;4203;48.144;14.118;2024-01-30T00:22:37;33.03;;;19.47;;
8331;SDS011;4203;48.144;14.118;2024-01-30T00:25:04;31.33;;;18.80;;
8331;SDS011;4203;48.144;14.118;2024-01-30T00:27:32;30.20;;;18.87;;
8331;SDS011;4203;48.144;14.118;2024-01-30T00:29:59;28.60;;;18.40;;
8331;SDS011;4203;48.144;14.118;2024-01-30T00:32:27;27.67;;;17.63;;
8331;SDS011;4203;48.144;14.118;2024-01-30T00:34:55;33.43;;;19.30;;
8331;SDS011;4203;48.144;14.118;2024-01-30T00:37:22;31.77;;;18.93;;
8331;SDS011;4203;48.144;14.118;2024-01-30T00:39:50;27.73;;;18.17;;
8331;SDS011;4203;48.144;14.118;2024-01-30T00:42:17;31.10;;;16.60;;
8331;SDS011;4203;48.144;14.118;2024-01-30T00:44:44;35.27;;;18.63;;
8331;SDS011;4203;48.144;14.118;2024-01-30T00:47:11;27.73;;;18.03;;
8331;SDS011;4203;48.144;14.118;2024-01-30T00:49:40;30.27;;;17.77;;
8331;SDS011;4203;48.144;14.118;2024-01-30T00:52:07;26.03;;;17.20;;
8331;SDS011;4203;48.144;14.118;2024-01-30T00:54:35;31.63;;;17.70;;
8331;SDS011;4203;48.144;14.118;2024-01-30T00:57:02;28.60;;;18.10;;
8331;SDS011;4203;48.144;14.118;2024-01-30T00:59:29;27.63;;;17.73;;
8331;SDS011;4203;48.144;14.118;2024-01-30T01:01:56;29.37;;;18.67;;
8331;SDS011;4203;48.144;14.118;2024-01-30T01:04:24;35.20;;;18.97;;
8331;SDS011;4203;48.144;14.118;2024-01-30T01:06:53;31.23;;;18.57;;
8331;SDS011;4203;48.144;14.118;2024-01-30T01:09:20;36.13;;;18.93;;
8331;SDS011;4203;48.144;14.118;2024-01-30T01:11:47;29.50;;;18.43;;
8331;SDS011;4203;48.144;14.118;2024-01-30T01:14:14;29.73;;;18.90;;
8331;SDS011;4203;48.144;14.118;2024-01-30T01:16:42;27.37;;;18.60;;
8331;SDS011;4203;48.144;14.118;2024-01-30T01:19:09;31.40;;;18.60;;
8331;SDS011;4203;48.144;14.118;2024-01-30T01:21:36;33.20;;;19.00;;
8331;SDS011;4203;48.144;14.118;2024-01-30T01:24:05;30.53;;;19.00;;
8331;SDS011;4203;48.144;14.118;2024-01-30T01:26:32;26.33;;;17.73;;
8331;SDS011;4203;48.144;14.118;2024-01-30T01:29:00;37.23;;;18.60;;
8331;SDS011;4203;48.144;14.118;2024-01-30T01:31:29;31.83;;;18.20;;
8331;SDS011;4203;48.144;14.118;2024-01-30T01:33:56;29.33;;;18.63;;
8331;SDS011;4203;48.144;14.118;2024-01-30T01:36:23;31.83;;;18.63;;
8331;SDS011;4203;48.144;14.118;2024-01-30T01:38:50;31.13;;;18.47;;
8331;SDS011;4203;48.144;14.118;2024-01-30T01:41:19;31.80;;;18.60;;
8331;SDS011;4203;48.144;14.118;2024-01-30T01:43:46;30.20;;;17.93;;
8331;SDS011;4203;48.144;14.118;2024-01-30T01:46:13;29.27;;;16.50;;
8331;SDS011;4203;48.144;14.118;2024-01-30T01:48:41;30.53;;;17.90;;
8331;SDS011;4203;48.144;14.118;2024-01-30T01:51:10;31.53;;;17.60;;
8331;SDS011;4203;48.144;14.118;2024-01-30T01:53:37;31.27;;;17.67;;
8331;SDS011;4203;48.144;14.118;2024-01-30T01:56:05;31.57;;;17.70;;
8331;SDS011;4203;48.144;14.118;2024-01-30T01:58:34;30.67;;;17.90;;
8331;SDS011;4203;48.144;14.118;2024-01-30T02:01:03;30.07;;;17.23;;
8331;SDS011;4203;48.144;14.118;2024-01-30T02:03:31;29.93;;;17.93;;
8331;SDS011;4203;48.144;14.118;2024-01-30T02:05:58;31.07;;;18.37;;
8331;SDS011;4203;48.144;14.118;2024-01-30T02:08:25;25.97;;;16.83;;
8331;SDS011;4203;48.144;14.118;2024-01-30T02:10:53;29.57;;;18.47;;
8331;SDS011;4203;48.144;14.118;2024-01-30T02:13:20;26.60;;;17.17;;
8331;SDS011;4203;48.144;14.118;2024-01-30T02:15:50;31.07;;;17.30;;
8331;SDS011;4203;48.144;14.118;2024-01-30T02:18:19;24.23;;;17.17;;
8331;SDS011;4203;48.144;14.118;2024-01-30T02:20:47;31.00;;;17.33;;
8331;SDS011;4203;48.144;14.118;2024-01-30T02:23:15;30.27;;;17.60;;
8331;SDS011;4203;48.144;14.118;2024-01-30T02:25:43;26.87;;;16.60;;
8331;SDS011;4203;48.144;14.118;2024-01-30T02:28:10;26.87;;;17.83;;
8331;SDS011;4203;48.144;14.118;2024-01-30T02:30:38;27.87;;;18.67;;
8331;SDS011;4203;48.144;14.118;2024-01-30T02:33:05;29.03;;;16.33;;
8331;SDS011;4203;48.144;14.118;2024-01-30T02:35:32;33.50;;;18.80;;
8331;SDS011;4203;48.144;14.118;2024-01-30T02:38:00;29.27;;;16.97;;
8331;SDS011;4203;48.144;14.118;2024-01-30T02:40:29;29.87;;;18.30;;
8331;SDS011;4203;48.144;14.118;2024-01-30T02:42:56;27.07;;;16.73;;
8331;SDS011;4203;48.144;14.118;2024-01-30T02:45:24;29.80;;;19.00;;
8331;SDS011;4203;48.144;14.118;2024-01-30T02:47:51;31.53;;;18.57;;
8331;SDS011;4203;48.144;14.118;2024-01-30T02:50:19;31.13;;;18.90;;
8331;SDS011;4203;48.144;14.118;2024-01-30T02:52:46;29.57;;;17.73;;
8331;SDS011;4203;48.144;14.118;2024-01-30T02:55:13;27.40;;;17.53;;
8331;SDS011;4203;48.144;14.118;2024-01-30T02:57:44;35.03;;;18.80;;
8331;SDS011;4203;48.144;14.118;2024-01-30T03:00:11;37.43;;;18.67;;
8331;SDS011;4203;48.144;14.118;2024-01-30T03:02:39;29.10;;;17.27;;
8331;SDS011;4203;48.144;14.118;2024-01-30T03:05:07;31.77;;;18.00;;
8331;SDS011;4203;48.144;14.118;2024-01-30T03:07:35;29.93;;;17.93;;
8331;SDS011;4203;48.144;14.118;2024-01-30T03:10:02;27.70;;;18.03;;
8331;SDS011;4203;48.144;14.118;2024-01-30T03:12:31;32.70;;;17.70;;
8331;SDS011;4203;48.144;14.118;2024-01-30T03:14:59;28.60;;;17.27;;
8331;SDS011;4203;48.144;14.118;2024-01-30T03:17:27;27.33;;;17.63;;
8331;SDS011;4203;48.144;14.118;2024-01-30T03:19:54;37.67;;;18.07;;
8331;SDS011;4203;48.144;14.118;2024-01-30T03:22:21;26.73;;;17.10;;
8331;SDS011;4203;48.144;14.118;2024-01-30T03:24:49;31.40;;;17.77;;
8331;SDS011;4203;48.144;14.118;2024-01-30T03:27:16;32.30;;;18.33;;
8331;SDS011;4203;48.144;14.118;2024-01-30T03:29:43;31.93;;;17.97;;
8331;SDS011;4203;48.144;14.118;2024-01-30T03:32:12;27.70;;;18.07;;
8331;SDS011;4203;48.144;14.118;2024-01-30T03:34:39;31.97;;;18.13;;
8331;SDS011;4203;48.144;14.118;2024-01-30T03:37:06;30.17;;;18.60;;
8331;SDS011;4203;48.144;14.118;2024-01-30T03:39:33;29.23;;;17.93;;
8331;SDS011;4203;48.144;14.118;2024-01-30T03:42:01;30.53;;;18.43;;
8331;SDS011;4203;48.144;14.118;2024-01-30T03:44:29;29.43;;;18.43;;
8331;SDS011;4203;48.144;14.118;2024-01-30T03:46:56;29.23;;;17.57;;
8331;SDS011;4203;48.144;14.118;2024-01-30T03:49:25;30.77;;;17.57;;
8331;SDS011;4203;48.144;14.118;2024-01-30T03:51:52;29.43;;;17.43;;
8331;SDS011;4203;48.144;14.118;2024-01-30T03:54:19;35.73;;;18.33;;
8331;SDS011;4203;48.144;14.118;2024-01-30T03:56:46;30.47;;;17.87;;
8331;SDS011;4203;48.144;14.118;2024-01-30T03:59:14;33.50;;;20.07;;
8331;SDS011;4203;48.144;14.118;2024-01-30T04:01:41;48.97;;;20.30;;
8331;SDS011;4203;48.144;14.118;2024-01-30T04:04:08;46.30;;;22.10;;
8331;SDS011;4203;48.144;14.118;2024-01-30T04:06:37;39.83;;;21.07;;
8331;SDS011;4203;48.144;14.118;2024-01-30T04:09:04;53.17;;;21.97;;
8331;SDS011;4203;48.144;14.118;2024-01-30T04:11:31;45.73;;;22.13;;
8331;SDS011;4203;48.144;14.118;2024-01-30T04:13:58;41.10;;;21.60;;
8331;SDS011;4203;48.144;14.118;2024-01-30T04:16:25;53.97;;;22.97;;
8331;SDS011;4203;48.144;14.118;2024-01-30T04:18:53;71.77;;;24.60;;
8331;SDS011;4203;48.144;14.118;2024-01-30T04:21:20;46.00;;;23.77;;
8331;SDS011;4203;48.144;14.118;2024-01-30T04:23:50;45.73;;;21.53;;
8331;SDS011;4203;48.144;14.118;2024-01-30T04:26:18;49.17;;;22.17;;
8331;SDS011;4203;48.144;14.118;2024-01-30T04:28:45;69.67;;;25.07;;
8331;SDS011;4203;48.144;14.118;2024-01-30T04:31:12;45.90;;;23.90;;
8331;SDS011;4203;48.144;14.118;2024-01-30T04:33:39;35.10;;;22.93;;
8331;SDS011;4203;48.144;14.118;2024-01-30T04:36:08;41.90;;;21.83;;
8331;SDS011;4203;48.144;14.118;2024-01-30T04:38:36;42.67;;;23.07;;
8331;SDS011;4203;48.144;14.118;2024-01-30T04:41:05;37.27;;;21.83;;
8331;SDS011;4203;48.144;14.118;2024-01-30T04:43:32;43.67;;;24.57;;
8331;SDS011;4203;48.144;14.118;2024-01-30T04:45:59;46.40;;;22.90;;
8331;SDS011;4203;48.144;14.118;2024-01-30T04:48:26;42.60;;;23.37;;
8331;SDS011;4203;48.144;14.118;2024-01-30T04:50:54;45.80;;;23.60;;
8331;SDS011;4203;48.144;14.118;2024-01-30T04:53:21;56.07;;;24.30;;
8331;SDS011;4203;48.144;14.118;2024-01-30T04:55:48;55.37;;;23.70;;
8331;SDS011;4203;48.144;14.118;2024-01-30T04:58:17;52.57;;;24.10;;
8331;SDS011;4203;48.144;14.118;2024-01-30T05:00:44;44.33;;;23.90;;
8331;SDS011;4203;48.144;14.118;2024-01-30T05:03:16;56.43;;;23.93;;
8331;SDS011;4203;48.144;14.118;2024-01-30T05:05:44;51.07;;;24.73;;
8331;SDS011;4203;48.144;14.118;2024-01-30T05:08:11;48.93;;;24.80;;
8331;SDS011;4203;48.144;14.118;2024-01-30T05:10:38;44.37;;;24.77;;
8331;SDS011;4203;48.144;14.118;2024-01-30T05:13:05;44.27;;;24.30;;
8331;SDS011;4203;48.144;14.118;2024-01-30T05:15:34;47.03;;;25.20;;
8331;SDS011;4203;48.144;14.118;2024-01-30T05:18:01;44.70;;;23.57;;
8331;SDS011;4203;48.144;14.118;2024-01-30T05:20:28;39.60;;;24.70;;
8331;SDS011;4203;48.144;14.118;2024-01-30T05:22:55;46.10;;;24.17;;
8331;SDS011;4203;48.144;14.118;2024-01-30T05:25:22;45.30;;;24.20;;
8331;SDS011;4203;48.144;14.118;2024-01-30T05:27:50;50.43;;;26.57;;
8331;SDS011;4203;48.144;14.118;2024-01-30T05:30:17;55.30;;;23.70;;
8331;SDS011;4203;48.144;14.118;2024-01-30T05:32:46;47.93;;;26.77;;
8331;SDS011;4203;48.144;14.118;2024-01-30T05:35:13;54.27;;;23.80;;
8331;SDS011;4203;48.144;14.118;2024-01-30T05:37:40;62.50;;;25.50;;
8331;SDS011;4203;48.144;14.118;2024-01-30T05:40:08;60.00;;;24.97;;
8331;SDS011;4203;48.144;14.118;2024-01-30T05:42:36;43.87;;;24.13;;
8331;SDS011;4203;48.144;14.118;2024-01-30T05:45:03;44.10;;;24.13;;
8331;SDS011;4203;48.144;14.118;2024-01-30T05:47:31;45.67;;;24.80;;
8331;SDS011;4203;48.144;14.118;2024-01-30T05:49:59;44.90;;;24.47;;
8331;SDS011;4203;48.144;14.118;2024-01-30T05:52:27;63.27;;;24.83;;
8331;SDS011;4203;48.144;14.118;2024-01-30T05:54:54;42.20;;;25.53;;
8331;SDS011;4203;48.144;14.118;2024-01-30T05:57:21;44.00;;;24.23;;
8331;SDS011;4203;48.144;14.118;2024-01-30T05:59:48;37.73;;;23.50;;
8331;SDS011;4203;48.144;14.118;2024-01-30T06:02:17;43.47;;;24.37;;
8331;SDS011;4203;48.144;14.118;2024-01-30T06:04:44;48.13;;;24.83;;
8331;SDS011;4203;48.144;14.118;2024-01-30T06:07:13;43.80;;;24.33;;
8331;SDS011;4203;48.144;14.118;2024-01-30T06:09:40;42.27;;;23.87;;
8331;SDS011;4203;48.144;14.118;2024-01-30T06:12:07;48.20;;;24.40;;
8331;SDS011;4203;48.144;14.118;2024-01-30T06:14:37;48.97;;;25.73;;
8331;SDS011;4203;48.144;14.118;2024-01-30T06:17:04;52.57;;;26.33;;
8331;SDS011;4203;48.144;14.118;2024-01-30T06:19:31;44.20;;;23.63;;
8331;SDS011;4203;48.144;14.118;2024-01-30T06:21:58;40.40;;;23.17;;
8331;SDS011;4203;48.144;14.118;2024-01-30T06:24:27;37.37;;;23.63;;
8331;SDS011;4203;48.144;14.118;2024-01-30T06:26:54;46.00;;;24.07;;
8331;SDS011;4203;48.144;14.118;2024-01-30T06:29:21;44.60;;;25.10;;
8331;SDS011;4203;48.144;14.118;2024-01-30T06:31:49;42.67;;;22.63;;
8331;SDS011;4203;48.144;14.118;2024-01-30T06:34:17;45.53;;;24.03;;
8331;SDS011;4203;48.144;14.118;2024-01-30T06:36:44;78.33;;;23.87;;
8331;SDS011;4203;48.144;14.118;2024-01-30T06:39:11;58.60;;;22.53;;
8331;SDS011;4203;48.144;14.118;2024-01-30T06:41:39;66.63;;;22.87;;
8331;SDS011;4203;48.144;14.118;2024-01-30T06:44:07;105.97;;;25.50;;
8331;SDS011;4203;48.144;14.118;2024-01-30T06:46:34;33.67;;;21.83;;
8331;SDS011;4203;48.144;14.118;2024-01-30T06:49:02;53.37;;;23.07;;
8331;SDS011;4203;48.144;14.118;2024-01-30T06:51:29;37.13;;;21.80;;
8331;SDS011;4203;48.144;14.118;2024-01-30T06:53:56;47.90;;;22.93;;
8331;SDS011;4203;48.144;14.118;2024-01-30T06:56:23;64.63;;;23.73;;
8331;SDS011;4203;48.144;14.118;2024-01-30T06:58:52;94.33;;;25.97;;
8331;SDS011;4203;48.144;14.118;2024-01-30T07:01:19;44.63;;;24.37;;
8331;SDS011;4203;48.144;14.118;2024-01-30T07:03:46;86.60;;;24.03;;
8331;SDS011;4203;48.144;14.118;2024-01-30T07:06:13;57.70;;;24.20;;
8331;SDS011;4203;48.144;14.118;2024-01-30T07:08:41;46.23;;;23.63;;
8331;SDS011;4203;48.144;14.118;2024-01-30T07:11:08;51.60;;;23.27;;
8331;SDS011;4203;48.144;14.118;2024-01-30T07:13:37;34.70;;;20.93;;
8331;SDS011;4203;48.144;14.118;2024-01-30T07:16:06;68.30;;;23.97;;
8331;SDS011;4203;48.144;14.118;2024-01-30T07:18:34;46.47;;;23.30;;
8331;SDS011;4203;48.144;14.118;2024-01-30T07:21:01;65.63;;;24.77;;
8331;SDS011;4203;48.144;14.118;2024-01-30T07:23:28;43.67;;;23.13;;
8331;SDS011;4203;48.144;14.118;2024-01-30T07:25:55;37.00;;;22.60;;
8331;SDS011;4203;48.144;14.118;2024-01-30T07:28:22;44.07;;;24.23;;
8331;SDS011;4203;48.144;14.118;2024-01-30T07:30:49;57.30;;;24.97;;
8331;SDS011;4203;48.144;14.118;2024-01-30T07:33:18;38.30;;;23.30;;
8331;SDS011;4203;48.144;14.118;2024-01-30T07:35:45;48.30;;;24.20;;
8331;SDS011;4203;48.144;14.118;2024-01-30T07:38:13;36.40;;;22.80;;
8331;SDS011;4203;48.144;14.118;2024-01-30T07:40:40;35.77;;;23.50;;
8331;SDS011;4203;48.144;14.118;2024-01-30T07:43:07;39.00;;;23.57;;
8331;SDS011;4203;48.144;14.118;2024-01-30T07:45:34;34.70;;;23.33;;
8331;SDS011;4203;48.144;14.118;2024-01-30T07:48:03;39.43;;;24.73;;
8331;SDS011;4203;48.144;14.118;2024-01-30T07:50:32;39.77;;;24.53;;
8331;SDS011;4203;48.144;14.118;2024-01-30T07:52:59;50.13;;;27.77;;
8331;SDS011;4203;48.144;14.118;2024-01-30T07:58:16;38.63;;;22.60;;
8331;SDS011;4203;48.144;14.118;2024-01-30T08:00:43;40.20;;;24.47;;
8331;SDS011;4203;48.144;14.118;2024-01-30T08:03:10;36.47;;;22.33;;
8331;SDS011;4203;48.144;14.118;2024-01-30T08:05:39;36.73;;;22.33;;
8331;SDS011;4203;48.144;14.118;2024-01-30T08:08:06;39.90;;;23.50;;
8331;SDS011;4203;48.144;14.118;2024-01-30T08:10:33;45.50;;;23.77;;
8331;SDS011;4203;48.144;14.118;2024-01-30T08:13:01;37.87;;;24.37;;
8331;SDS011;4203;48.144;14.118;2024-01-30T08:15:28;39.13;;;23.77;;
8331;SDS011;4203;48.144;14.118;2024-01-30T08:17:55;38.37;;;23.93;;
8331;SDS011;4203;48.144;14.118;2024-01-30T08:20:24;37.63;;;24.47;;
8331;SDS011;4203;48.144;14.118;2024-01-30T08:22:52;33.30;;;22.27;;
8331;SDS011;4203;48.144;14.118;2024-01-30T08:25:19;39.23;;;23.40;;
8331;SDS011;4203;48.144;14.118;2024-01-30T08:27:47;41.83;;;24.90;;
8331;SDS011;4203;48.144;14.118;2024-01-30T08:30:14;51.60;;;24.17;;
8331;SDS011;4203;48.144;14.118;2024-01-30T08:32:42;43.87;;;23.90;;
8331;SDS011;4203;48.144;14.118;2024-01-30T08:35:09;60.20;;;25.57;;
8331;SDS011;4203;48.144;14.118;2024-01-30T08:37:38;53.13;;;25.50;;
8331;SDS011;4203;48.144;14.118;2024-01-30T08:40:08;50.57;;;25.47;;
8331;SDS011;4203;48.144;14.118;2024-01-30T08:42:35;40.80;;;24.17;;
8331;SDS011;4203;48.144;14.118;2024-01-30T08:45:03;41.67;;;24.13;;
8331;SDS011;4203;48.144;14.118;2024-01-30T08:47:31;45.63;;;24.10;;
8331;SDS011;4203;48.144;14.118;2024-01-30T08:49:58;57.47;;;26.47;;
8331;SDS011;4203;48.144;14.118;2024-01-30T08:52:25;44.43;;;24.70;;
8331;SDS011;4203;48.144;14.118;2024-01-30T08:54:52;38.87;;;24.13;;
8331;SDS011;4203;48.144;14.118;2024-01-30T08:57:21;43.63;;;24.67;;
8331;SDS011;4203;48.144;14.118;2024-01-30T08:59:48;43.97;;;24.07;;
8331;SDS011;4203;48.144;14.118;2024-01-30T09:02:15;41.80;;;24.87;;
8331;SDS011;4203;48.144;14.118;2024-01-30T09:04:44;67.07;;;25.63;;
8331;SDS011;4203;48.144;14.118;2024-01-30T09:07:11;50.23;;;24.87;;
8331;SDS011;4203;48.144;14.118;2024-01-30T09:09:38;51.47;;;26.23;;
8331;SDS011;4203;48.144;14.118;2024-01-30T09:12:07;49.03;;;26.73;;
8331;SDS011;4203;48.144;14.118;2024-01-30T09:14:38;50.67;;;26.47;;
8331;SDS011;4203;48.144;14.118;2024-01-30T09:17:06;44.67;;;25.73;;
8331;SDS011;4203;48.144;14.118;2024-01-30T09:19:33;45.93;;;26.40;;
8331;SDS011;4203;48.144;14.118;2024-01-30T09:22:00;44.10;;;26.90;;
8331;SDS011;4203;48.144;14.118;2024-01-30T09:24:28;49.57;;;26.27;;
8331;SDS011;4203;48.144;14.118;2024-01-30T09:26:55;45.87;;;26.77;;
8331;SDS011;4203;48.144;14.118;2024-01-30T09:29:28;47.27;;;25.20;;
8331;SDS011;4203;48.144;14.118;2024-01-30T09:31:57;47.70;;;25.50;;
8331;SDS011;4203;48.144;14.118;2024-01-30T09:34:25;42.20;;;25.00;;
8331;SDS011;4203;48.144;14.118;2024-01-30T21:38:51;34.63;;;18.33;;
8331;SDS011;4203;48.144;14.118;2024-01-30T21:41:26;36.53;;;17.80;;
8331;SDS011;4203;48.144;14.118;2024-01-30T21:49:50;51.80;;;21.03;;
8331;SDS011;4203;48.144;14.118;2024-01-30T21:52:40;39.77;;;20.17;;
8331;SDS011;4203;48.144;14.118;2024-01-30T21:55:10;40.20;;;20.80;;
8331;SDS011;4203;48.144;14.118;2024-01-30T22:05:17;33.13;;;17.57;;
8331;SDS011;4203;48.144;14.118;2024-01-30T22:08:21;36.43;;;18.53;;
8331;SDS011;4203;48.144;14.118;2024-01-30T22:10:50;48.17;;;20.53;;
8331;SDS011;4203;48.144;14.118;2024-01-30T22:13:18;34.37;;;18.50;;
8331;SDS011;4203;48.144;14.118;2024-01-30T22:15:47;49.63;;;20.57;;
8331;SDS011;4203;48.144;14.118;2024-01-30T22:18:23;36.37;;;19.53;;
8331;SDS011;4203;48.144;14.118;2024-01-30T22:20:51;37.27;;;19.53;;
8331;SDS011;4203;48.144;14.118;2024-01-30T22:23:18;46.27;;;20.13;;
8331;SDS011;4203;48.144;14.118;2024-01-30T22:25:45;55.90;;;21.70;;
8331;SDS011;4203;48.144;14.118;2024-01-30T22:28:16;49.00;;;21.17;;
8331;SDS011;4203;48.144;14.118;2024-01-30T22:30:43;68.23;;;20.87;;
8331;SDS011;4203;48.144;14.118;2024-01-30T22:33:10;77.60;;;22.07;;
8331;SDS011;4203;48.144;14.118;2024-01-30T22:35:37;67.00;;;20.63;;
8331;SDS011;4203;48.144;14.118;2024-01-30T22:38:05;47.00;;;20.53;;
8331;SDS011;4203;48.144;14.118;2024-01-30T22:40:34;40.50;;;19.90;;
8331;SDS011;4203;48.144;14.118;2024-01-30T22:43:02;41.17;;;19.83;;
8331;SDS011;4203;48.144;14.118;2024-01-30T22:45:31;39.00;;;20.70;;
8331;SDS011;4203;48.144;14.118;2024-01-30T22:47:59;39.90;;;19.87;;
8331;SDS011;4203;48.144;14.118;2024-01-30T22:50:26;41.43;;;21.13;;
8331;SDS011;4203;48.144;14.118;2024-01-30T22:52:53;46.20;;;21.93;;
8331;SDS011;4203;48.144;14.118;2024-01-30T22:55:21;39.53;;;20.13;;
8331;SDS011;4203;48.144;14.118;2024-01-30T22:57:48;53.67;;;20.37;;
8331;SDS011;4203;48.144;14.118;2024-01-30T23:00:18;40.77;;;20.33;;
8331;SDS011;4203;48.144;14.118;2024-01-30T23:02:52;42.97;;;19.63;;
8331;SDS011;4203;48.144;14.118;2024-01-30T23:05:19;39.27;;;19.50;;
8331;SDS011;4203;48.144;14.118;2024-01-30T23:07:47;39.33;;;19.97;;
8331;SDS011;4203;48.144;14.118;2024-01-30T23:10:14;36.43;;;19.27;;
8331;SDS011;4203;48.144;14.118;2024-01-30T23:12:42;39.87;;;20.47;;
8331;SDS011;4203;48.144;14.118;2024-01-30T23:15:09;41.90;;;20.07;;
8331;SDS011;4203;48.144;14.118;2024-01-30T23:17:38;46.57;;;20.90;;
8331;SDS011;4203;48.144;14.118;2024-01-30T23:20:08;40.57;;;19.73;;
8331;SDS011;4203;48.144;14.118;2024-01-30T23:22:37;49.87;;;19.43;;
8331;SDS011;4203;48.144;14.118;2024-01-30T23:25:04;33.10;;;18.23;;
8331;SDS011;4203;48.144;14.118;2024-01-30T23:27:32;52.87;;;20.50;;
8331;SDS011;4203;48.144;14.118;2024-01-30T23:29:59;45.43;;;19.93;;
8331;SDS011;4203;48.144;14.118;2024-01-30T23:32:29;58.97;;;19.93;;
8331;SDS011;4203;48.144;14.118;2024-01-30T23:34:56;43.60;;;19.90;;
8331;SDS011;4203;48.144;14.118;2024-01-30T23:37:26;41.03;;;19.50;;
8331;SDS011;4203;48.144;14.118;2024-01-30T23:39:54;40.83;;;18.27;;
8331;SDS011;4203;48.144;14.118;2024-01-30T23:42:21;34.50;;;19.40;;
8331;SDS011;4203;48.144;14.118;2024-01-30T23:44:48;73.67;;;21.60;;
8331;SDS011;4203;48.144;14.118;2024-01-30T23:47:15;63.90;;;21.07;;
8331;SDS011;4203;48.144;14.118;2024-01-30T23:49:42;40.83;;;20.60;;
8331;SDS011;4203;48.144;14.118;2024-01-30T23:52:11;45.40;;;18.93;;
8331;SDS011;4203;48.144;14.118;2024-01-30T23:54:40;48.50;;;19.80;;
8331;SDS011;4203;48.144;14.118;2024-01-30T23:57:08;46.90;;;19.57;;
8331;SDS011;4203;48.144;14.118;2024-01-30T23:59:36;41.70;;;19.03;;
